Time;durP1;ratioP1;P1;durP2;ratioP2;P2;SDS_P1;SDS_P2;PMS_P1;PMS_P2;Temp;Humidity;BMP_temperature;BMP_pressure;BME280_temperature;BME280_humidity;BME280_pressure;Samples;Min_cycle;Max_cycle;Signal;HPM_P1;HPM_P2
2022/03/14 00:06:48;;;;;;;9.90;5.72;;;-1.10;99.90;;;;;;20888895;28;20037;-55
2022/03/14 00:16:51;;;;;;;11.65;7.00;;;-1.00;99.90;;;;;;20916971;28;20056;-57
2022/03/14 00:26:54;;;;;;;10.60;6.45;;;-0.90;99.90;;;;;;20952859;28;20041;-54
2022/03/14 00:36:57;;;;;;;13.90;7.40;;;-1.00;99.90;;;;;;20986247;28;20037;-52
2022/03/14 00:46:59;;;;;;;13.75;6.85;;;-1.10;99.90;;;;;;20952325;28;20040;-53
2022/03/14 00:57:02;;;;;;;11.60;7.25;;;-1.10;99.90;;;;;;20968130;28;20044;-55
2022/03/14 01:07:04;;;;;;;11.30;6.47;;;-1.00;99.90;;;;;;20966685;28;20480;-55
2022/03/14 01:17:08;;;;;;;12.23;7.40;;;-0.90;99.90;;;;;;20965791;28;20053;-53
2022/03/14 01:27:11;;;;;;;12.55;7.38;;;-0.80;99.90;;;;;;20965589;28;20090;-57
2022/03/14 01:37:14;;;;;;;14.35;7.07;;;-0.80;99.90;;;;;;20965362;28;20040;-55
2022/03/14 01:47:16;;;;;;;14.07;7.50;;;-0.80;99.90;;;;;;20966131;28;20028;-53
2022/03/14 01:57:19;;;;;;;11.98;7.00;;;-0.70;99.90;;;;;;20964031;28;20554;-53
2022/03/14 02:07:21;;;;;;;17.25;7.00;;;-0.70;99.90;;;;;;20963539;28;20106;-56
2022/03/14 02:17:24;;;;;;;15.18;7.85;;;-0.70;99.90;;;;;;20962817;28;20079;-54
2022/03/14 02:27:30;;;;;;;13.60;7.80;;;-0.80;99.90;;;;;;20964291;28;20032;-54
2022/03/14 02:37:32;;;;;;;16.33;8.98;;;-0.80;99.90;;;;;;20963533;28;20400;-57
2022/03/14 02:47:35;;;;;;;15.02;8.82;;;-0.70;99.90;;;;;;20968100;28;20037;-56
2022/03/14 02:57:38;;;;;;;18.58;10.15;;;-0.70;99.90;;;;;;20977085;28;20078;-56
2022/03/14 03:07:40;;;;;;;17.48;9.57;;;-0.70;99.90;;;;;;20976346;28;20094;-55
2022/03/14 03:17:43;;;;;;;16.42;8.77;;;-0.80;99.90;;;;;;20975531;28;20044;-53
2022/03/14 03:27:46;;;;;;;17.20;9.38;;;-0.80;99.90;;;;;;20975376;28;20032;-56
2022/03/14 03:37:51;;;;;;;17.15;9.27;;;-0.80;99.90;;;;;;20974190;28;20072;-55
2022/03/14 03:47:54;;;;;;;18.92;9.70;;;-0.80;99.90;;;;;;20974543;28;20032;-58
2022/03/14 03:57:56;;;;;;;15.70;9.15;;;-0.80;99.90;;;;;;20972626;28;20063;-56
2022/03/14 04:07:59;;;;;;;14.93;8.90;;;-0.80;99.90;;;;;;20972021;28;20090;-53
2022/03/14 04:18:02;;;;;;;14.73;8.45;;;-0.80;99.90;;;;;;20970563;28;20053;-56
2022/03/14 04:28:07;;;;;;;13.30;8.15;;;-0.90;99.90;;;;;;20970493;28;20392;-54
2022/03/14 04:38:10;;;;;;;15.25;8.52;;;-0.80;99.90;;;;;;20969656;28;20028;-53
2022/03/14 04:48:12;;;;;;;13.77;7.88;;;-0.70;99.90;;;;;;20968484;28;20040;-52
2022/03/14 04:58:14;;;;;;;15.98;9.52;;;-0.70;99.90;;;;;;20968019;28;20349;-54
2022/03/14 05:08:17;;;;;;;17.25;9.27;;;-0.60;99.90;;;;;;20967454;28;20105;-54
2022/03/14 05:18:19;;;;;;;16.05;8.30;;;-0.70;99.90;;;;;;20965873;28;20049;-56
2022/03/14 05:28:22;;;;;;;13.18;7.75;;;-0.70;99.90;;;;;;20965939;28;20040;-55
2022/03/14 05:38:24;;;;;;;13.05;7.55;;;-0.70;99.90;;;;;;20964689;28;20066;-53
2022/03/14 05:48:27;;;;;;;12.95;7.78;;;-0.70;99.90;;;;;;20966209;28;20525;-52
2022/03/14 05:58:30;;;;;;;17.23;9.32;;;-0.70;99.90;;;;;;20947534;28;20037;-53
2022/03/14 06:08:33;;;;;;;13.48;8.52;;;-0.60;99.90;;;;;;20964687;28;20070;-57
2022/03/14 06:18:35;;;;;;;13.88;8.20;;;-0.40;99.90;;;;;;20880198;28;20547;-53
2022/03/14 06:28:38;;;;;;;14.57;8.30;;;-0.20;99.90;;;;;;20930494;28;20072;-54
2022/03/14 06:38:41;;;;;;;15.00;8.90;;;0.00;99.90;;;;;;20895946;28;20444;-53
2022/03/14 06:48:44;;;;;;;14.43;8.63;;;0.10;99.90;;;;;;20895485;28;20106;-54
2022/03/14 06:58:47;;;;;;;13.35;8.15;;;0.10;99.90;;;;;;20894640;28;20029;-54
2022/03/14 07:08:49;;;;;;;19.27;8.68;;;0.50;99.90;;;;;;20928961;28;20095;-53
2022/03/14 07:18:51;;;;;;;16.20;9.00;;;0.90;99.90;;;;;;20972524;28;20056;-59
2022/03/14 07:28:54;;;;;;;15.18;8.80;;;1.10;99.90;;;;;;20956332;28;20369;-53
2022/03/14 07:38:57;;;;;;;14.48;8.93;;;1.20;99.90;;;;;;20968945;28;20446;-57
2022/03/14 07:48:59;;;;;;;13.25;7.35;;;1.40;99.90;;;;;;20903190;28;20099;-53
2022/03/14 07:59:03;;;;;;;14.27;7.85;;;1.70;99.90;;;;;;20918717;28;20037;-58
2022/03/14 08:09:05;;;;;;;12.15;7.70;;;2.30;99.90;;;;;;20922323;28;20033;-54
2022/03/14 08:19:08;;;;;;;13.70;7.30;;;3.10;99.90;;;;;;20922500;28;1342899;-55
2022/03/14 08:29:11;;;;;;;11.30;7.15;;;4.10;99.90;;;;;;20970415;28;20063;-57
2022/03/14 08:39:14;;;;;;;13.30;7.97;;;4.90;99.90;;;;;;20970153;28;20040;-53
2022/03/14 08:49:16;;;;;;;11.93;7.43;;;6.00;98.20;;;;;;20969071;28;20098;-55
2022/03/14 08:59:18;;;;;;;12.70;7.88;;;6.60;96.20;;;;;;20968210;28;20170;-55
2022/03/14 09:09:21;;;;;;;13.18;7.90;;;7.00;95.70;;;;;;20961119;28;20546;-54
2022/03/14 09:19:27;;;;;;;10.82;7.32;;;7.30;93.70;;;;;;20950062;28;20496;-56
2022/03/14 09:29:35;;;;;;;12.35;7.43;;;7.20;94.10;;;;;;20966636;28;20094;-55
2022/03/14 09:39:38;;;;;;;14.80;8.30;;;7.50;93.20;;;;;;20964777;28;20040;-54
2022/03/14 09:49:44;;;;;;;13.25;7.47;;;7.90;92.60;;;;;;20965758;28;20028;-55
2022/03/14 09:59:48;;;;;;;11.43;7.07;;;8.40;91.60;;;;;;20964170;28;20095;-55
2022/03/14 10:09:51;;;;;;;15.18;8.07;;;8.40;91.40;;;;;;20947321;28;20464;-53
2022/03/14 10:20:00;;;;;;;12.07;7.00;;;8.40;91.20;;;;;;20909464;28;20073;-58
2022/03/14 10:30:05;;;;;;;11.35;6.82;;;8.70;91.80;;;;;;20880269;28;20037;-56
2022/03/14 10:40:10;;;;;;;11.52;7.20;;;8.50;91.70;;;;;;20879471;28;20091;-57
2022/03/14 10:50:36;;;;;;;12.75;7.95;;;8.30;92.50;;;;;;20879504;28;20041;-54
2022/03/14 11:00:53;;;;;;;11.02;6.78;;;9.10;90.80;;;;;;20878892;28;20025;-56
2022/03/14 11:10:57;;;;;;;13.48;7.18;;;9.10;91.50;;;;;;20889417;28;20033;-53
2022/03/14 11:21:02;;;;;;;11.88;6.80;;;9.40;91.60;;;;;;20956401;28;20056;-55
2022/03/14 11:31:05;;;;;;;12.55;8.10;;;9.90;91.60;;;;;;20975281;28;20063;-53
2022/03/14 11:41:08;;;;;;;14.15;8.05;;;9.70;90.50;;;;;;20974761;28;20404;-58
2022/03/14 11:51:11;;;;;;;14.85;8.55;;;9.60;91.40;;;;;;20974113;28;20094;-53
2022/03/14 12:01:16;;;;;;;11.30;7.60;;;10.00;91.00;;;;;;20972931;28;20074;-57
2022/03/14 12:11:37;;;;;;;12.30;7.85;;;10.30;91.10;;;;;;20989498;28;20451;-56
2022/03/14 12:21:52;;;;;;;15.05;7.70;;;10.50;91.30;;;;;;20970209;28;20102;-55
2022/03/14 12:32:22;;;;;;;11.65;7.25;;;10.80;90.50;;;;;;20987204;28;20028;-54
2022/03/14 12:42:25;;;;;;;12.70;8.23;;;11.10;90.00;;;;;;20969746;28;20058;-55
2022/03/14 12:52:29;;;;;;;15.07;8.05;;;11.10;89.70;;;;;;20969073;28;20086;-51
2022/03/14 13:02:32;;;;;;;13.80;7.82;;;11.20;88.90;;;;;;20967858;28;20032;-55
2022/03/14 13:12:34;;;;;;;10.63;8.32;;;11.20;90.50;;;;;;20983778;28;20048;-56
2022/03/14 13:22:37;;;;;;;10.02;7.00;;;11.30;88.90;;;;;;20890444;28;20045;-54
2022/03/14 13:32:40;;;;;;;13.02;7.80;;;10.90;90.50;;;;;;20882540;28;20064;-57
2022/03/14 13:42:45;;;;;;;12.73;8.15;;;10.70;91.40;;;;;;20882615;28;20385;-56
2022/03/14 13:52:51;;;;;;;13.88;8.95;;;10.20;91.30;;;;;;20882845;28;20181;-53
2022/03/14 14:03:04;;;;;;;17.90;8.98;;;9.50;92.00;;;;;;20881191;28;20037;-58
2022/03/14 14:13:07;;;;;;;14.00;9.15;;;9.20;92.60;;;;;;20881304;28;20103;-59
2022/03/14 14:23:18;;;;;;;15.55;9.13;;;8.70;92.70;;;;;;20961810;28;20060;-59
2022/03/14 14:33:24;;;;;;;15.65;10.02;;;8.20;93.10;;;;;;20962659;28;20036;-55
2022/03/14 14:43:31;;;;;;;17.13;11.15;;;7.90;93.90;;;;;;20968378;28;20037;-55
2022/03/14 14:53:35;;;;;;;17.33;10.50;;;7.50;94.50;;;;;;20977339;28;20059;-55
2022/03/14 15:03:37;;;;;;;20.23;11.55;;;6.80;95.50;;;;;;20976108;28;20174;-56
2022/03/14 15:13:40;;;;;;;18.50;10.68;;;6.30;96.80;;;;;;20975619;28;20062;-55
2022/03/14 15:23:42;;;;;;;16.88;10.07;;;6.40;97.40;;;;;;20975739;28;20380;-57
2022/03/14 15:33:46;;;;;;;19.48;11.93;;;6.20;98.00;;;;;;20974540;28;20032;-56
2022/03/14 15:43:48;;;;;;;17.35;11.10;;;6.20;98.60;;;;;;20974134;28;20036;-56
2022/03/14 15:53:53;;;;;;;18.85;11.70;;;6.10;98.20;;;;;;20972983;28;20033;-55
2022/03/14 16:03:55;;;;;;;19.05;11.20;;;5.80;98.50;;;;;;20972781;28;20058;-54
2022/03/14 16:13:59;;;;;;;19.63;12.35;;;5.30;99.30;;;;;;20972079;28;20102;-52
2022/03/14 16:24:08;;;;;;;17.00;11.68;;;4.50;99.90;;;;;;20971135;28;20044;-56
2022/03/14 16:34:11;;;;;;;25.58;14.48;;;3.70;99.90;;;;;;20969388;28;20097;-55
2022/03/14 16:44:15;;;;;;;26.23;16.27;;;3.10;99.90;;;;;;20969444;28;20040;-57
2022/03/14 16:54:18;;;;;;;23.25;13.82;;;2.60;99.90;;;;;;20968321;28;20032;-56
2022/03/14 17:04:21;;;;;;;24.60;14.52;;;2.20;99.90;;;;;;20966859;28;20059;-58
2022/03/14 17:14:24;;;;;;;24.88;13.82;;;2.10;99.90;;;;;;20926576;28;20053;-58
2022/03/14 17:24:27;;;;;;;23.90;12.77;;;1.80;99.90;;;;;;20965866;28;20069;-54
2022/03/14 17:34:30;;;;;;;23.55;13.00;;;1.30;99.90;;;;;;20965556;28;20090;-52
2022/03/14 17:44:33;;;;;;;20.38;12.10;;;1.00;99.90;;;;;;20965780;28;20388;-55
2022/03/14 17:54:37;;;;;;;23.67;11.70;;;0.70;99.90;;;;;;20964419;28;20036;-54
2022/03/14 18:04:40;;;;;;;23.02;12.27;;;0.40;99.90;;;;;;20964099;28;20040;-57
2022/03/14 18:14:43;;;;;;;26.52;11.95;;;0.30;99.90;;;;;;20953813;28;20057;-54
2022/03/14 18:24:46;;;;;;;21.33;11.73;;;0.30;99.90;;;;;;20897751;28;20040;-56
2022/03/14 18:34:51;;;;;;;22.40;12.88;;;0.30;99.90;;;;;;20897381;28;20381;-53
2022/03/14 18:44:55;;;;;;;21.92;12.73;;;0.10;99.90;;;;;;20896191;28;20098;-54
2022/03/14 18:54:58;;;;;;;26.60;14.65;;;0.10;99.90;;;;;;20895545;28;20083;-58
2022/03/14 19:05:00;;;;;;;25.85;14.60;;;0.10;99.90;;;;;;20894719;28;20029;-56
2022/03/14 19:15:06;;;;;;;26.20;14.57;;;0.10;99.90;;;;;;20907113;28;20036;-52
2022/03/14 19:25:36;;;;;;;26.00;13.88;;;0.20;99.90;;;;;;20994783;28;20048;-53
2022/03/14 19:36:05;;;;;;;22.17;12.60;;;0.30;99.90;;;;;;21008115;28;20049;-54
2022/03/14 19:46:10;;;;;;;22.58;12.13;;;0.40;99.90;;;;;;20974793;28;20037;-52
2022/03/14 19:56:14;;;;;;;20.58;11.48;;;0.70;99.90;;;;;;20958000;28;20524;-53
2022/03/14 20:06:18;;;;;;;24.17;13.15;;;0.70;99.90;;;;;;20972752;28;20126;-57
2022/03/14 20:16:22;;;;;;;21.10;11.05;;;0.60;99.90;;;;;;20955161;28;20060;-58
2022/03/14 20:26:25;;;;;;;20.30;11.52;;;0.60;99.90;;;;;;20971037;28;20040;-52
2022/03/14 20:36:32;;;;;;;24.67;11.60;;;0.60;99.90;;;;;;20970088;28;20037;-51
2022/03/14 20:46:37;;;;;;;27.77;14.15;;;0.70;99.90;;;;;;20968428;28;20044;-57
2022/03/14 20:56:39;;;;;;;24.38;13.68;;;0.80;99.90;;;;;;20969454;28;20032;-54
2022/03/14 21:06:45;;;;;;;24.75;13.30;;;0.70;99.90;;;;;;20967693;28;20093;-54
2022/03/14 21:16:47;;;;;;;25.85;13.13;;;0.60;99.90;;;;;;20966459;28;20325;-56
2022/03/14 21:26:54;;;;;;;21.85;12.82;;;0.60;99.90;;;;;;20965916;28;20547;-52
2022/03/14 21:36:57;;;;;;;26.80;13.98;;;0.40;99.90;;;;;;20965383;28;20036;-53
2022/03/14 21:47:01;;;;;;;23.55;12.55;;;0.40;99.90;;;;;;20966511;28;20044;-55
2022/03/14 21:57:04;;;;;;;23.00;12.13;;;0.30;99.90;;;;;;20964486;28;20044;-53
2022/03/14 22:07:06;;;;;;;21.60;11.77;;;0.40;99.90;;;;;;20963979;28;20037;-54
2022/03/14 22:17:09;;;;;;;22.98;13.63;;;0.50;99.90;;;;;;20963180;28;20097;-53
2022/03/14 22:27:12;;;;;;;21.33;11.52;;;0.70;99.90;;;;;;20963045;28;20044;-56
2022/03/14 22:37:15;;;;;;;17.13;9.77;;;0.90;99.90;;;;;;20962652;28;20090;-54
2022/03/14 22:47:19;;;;;;;15.52;8.68;;;0.90;99.90;;;;;;20962819;28;20036;-54
2022/03/14 22:57:25;;;;;;;19.38;10.13;;;0.80;99.90;;;;;;20962877;28;20089;-54
2022/03/14 23:17:50;;;;;;;21.77;10.70;;;0.40;99.90;;;;;;20910136;28;20521;-54
2022/03/14 23:27:53;;;;;;;22.40;10.80;;;0.30;99.90;;;;;;20910284;28;20064;-54
2022/03/14 23:37:56;;;;;;;18.70;9.15;;;0.40;99.90;;;;;;20892883;28;20037;-53
2022/03/14 23:48:00;;;;;;;17.15;8.68;;;0.40;99.90;;;;;;20891579;28;20452;-53
2022/03/14 23:58:03;;;;;;;25.63;11.75;;;0.40;99.90;;;;;;20890666;28;20106;-53
